Allison, Texas
Current Conditions -  °F | °C
As of 4:15 AM on Thursday 18 Dec 2014 (Local Time) from KHHF Reporting Station
Drizzle Drizzle  
Wind Chill: 38°   Ceiling: 300
Heat Index: 38°   Visibility: 2mi
Dew Point: 38°   Wind: 3mph
Humidity: 99%   Direction: 110°ESE
Pressure: 30.05"   Gusts: NA
Location:  35.61°N, 100.1°W
Report Text: KHHF 181015Z AUTO 11003KT 2SM DZ OVC003 03/03 A3005 RMK AO2 T00330031
Loading
Personal Weather Stations






























Interactive Weather Map New forecast layout! Learn more

10-Day Weather Forecast

Advertisements
Track Severe Weather on mobile